createdAt,value
2018-09-22T00:00:19.677Z,2.40
2018-09-22T00:02:47.651Z,2.57
2018-09-22T00:05:15.604Z,2.67
2018-09-22T00:07:45.529Z,2.23
2018-09-22T00:10:18.916Z,2.50
2018-09-22T00:12:46.930Z,2.67
2018-09-22T00:15:15.889Z,2.43
2018-09-22T00:17:43.838Z,2.93
2018-09-22T00:20:13.765Z,3.20
2018-09-22T00:22:42.582Z,3.23
2018-09-22T00:25:11.530Z,2.90
2018-09-22T00:27:39.382Z,2.90
2018-09-22T00:30:08.335Z,3.10
2018-09-22T00:32:37.306Z,2.87
2018-09-22T00:35:06.011Z,3.47
2018-09-22T00:37:34.966Z,3.33
2018-09-22T00:40:03.899Z,4.00
2018-09-22T00:42:32.958Z,3.60
2018-09-22T00:45:01.829Z,3.40
2018-09-22T00:47:31.765Z,3.23
2018-09-22T00:50:01.734Z,3.50
2018-09-22T00:52:29.662Z,3.37
2018-09-22T00:54:57.605Z,3.33
2018-09-22T00:57:27.589Z,3.43
2018-09-22T00:59:55.510Z,4.23
2018-09-22T01:02:24.412Z,4.07
2018-09-22T01:04:52.332Z,4.00
2018-09-22T01:07:21.208Z,3.83
2018-09-22T01:09:50.080Z,5.00
2018-09-22T01:12:21.132Z,4.30
2018-09-22T01:14:50.068Z,4.77
2018-09-22T01:17:21.502Z,4.10
2018-09-22T01:19:50.385Z,3.87
2018-09-22T01:22:19.293Z,3.87
2018-09-22T01:24:48.208Z,4.00
2018-09-22T01:27:16.132Z,4.10
2018-09-22T01:29:45.054Z,3.83
2018-09-22T01:32:12.868Z,3.43
2018-09-22T01:34:40.791Z,4.40
2018-09-22T01:37:08.790Z,4.50
2018-09-22T01:39:38.638Z,4.27
2018-09-22T01:42:08.577Z,4.57
2018-09-22T01:44:38.519Z,3.93
2018-09-22T01:47:08.587Z,4.67
2018-09-22T01:49:37.513Z,4.93
2018-09-22T01:52:07.368Z,4.00
2018-09-22T01:54:35.311Z,4.70
2018-09-22T01:57:05.189Z,4.27
2018-09-22T01:59:33.119Z,4.50
2018-09-22T02:02:01.017Z,5.10
2018-09-22T02:04:33.298Z,4.93
2018-09-22T02:07:05.199Z,4.67
2018-09-22T02:09:33.174Z,4.50
2018-09-22T02:12:03.039Z,4.60
2018-09-22T02:14:30.947Z,4.43
2018-09-22T02:16:58.886Z,5.00
2018-09-22T02:19:26.736Z,4.40
2018-09-22T02:21:55.673Z,4.70
2018-09-22T02:24:23.666Z,4.33
2018-09-22T02:26:56.307Z,4.20
2018-09-22T02:29:25.191Z,4.20
2018-09-22T02:31:54.186Z,4.77
2018-09-22T02:34:23.189Z,3.90
2018-09-22T02:36:52.061Z,3.97
2018-09-22T02:39:19.973Z,4.03
2018-09-22T02:41:47.877Z,4.00
2018-09-22T02:44:15.790Z,4.40
2018-09-22T02:46:44.800Z,3.60
2018-09-22T02:49:12.706Z,3.23
2018-09-22T02:51:42.654Z,4.97
2018-09-22T02:54:11.616Z,3.80
2018-09-22T02:56:39.478Z,3.50
2018-09-22T02:59:07.426Z,3.83
2018-09-22T03:01:35.313Z,3.70
2018-09-22T03:04:08.106Z,3.73
2018-09-22T03:06:38.072Z,3.87
2018-09-22T03:09:07.843Z,3.83
2018-09-22T03:11:35.760Z,4.10
2018-09-22T03:14:03.678Z,3.90
2018-09-22T03:16:31.622Z,3.70
2018-09-22T03:19:00.667Z,3.97
2018-09-22T03:21:28.587Z,3.60
2018-09-22T03:23:57.514Z,3.40
2018-09-22T03:26:25.333Z,3.63
2018-09-22T03:28:54.321Z,3.20
2018-09-22T03:31:22.221Z,3.03
2018-09-22T03:33:50.141Z,3.17
2018-09-22T03:36:19.082Z,3.20
2018-09-22T03:38:47.954Z,2.73
2018-09-22T03:41:20.074Z,2.80
2018-09-22T03:43:48.006Z,2.90
2018-09-22T03:46:15.878Z,3.33
2018-09-22T03:48:43.803Z,2.70
2018-09-22T03:51:13.753Z,2.80
2018-09-22T03:53:41.629Z,3.10
2018-09-22T03:56:10.526Z,2.33
2018-09-22T03:58:39.405Z,2.70
2018-09-22T04:01:09.318Z,2.47
2018-09-22T04:03:37.255Z,2.83
2018-09-22T04:06:06.202Z,2.30
2018-09-22T04:08:35.127Z,2.97
2018-09-22T04:11:03.000Z,2.63
2018-09-22T04:13:31.933Z,2.40
2018-09-22T04:16:03.901Z,2.40
2018-09-22T04:18:31.835Z,2.80
2018-09-22T04:20:59.777Z,2.70
2018-09-22T04:23:28.739Z,2.50
2018-09-22T04:25:57.580Z,2.27
2018-09-22T04:28:25.466Z,2.30
2018-09-22T04:30:54.385Z,2.67
2018-09-22T04:33:23.335Z,2.50
2018-09-22T04:35:51.227Z,2.33
2018-09-22T04:38:19.090Z,2.43
2018-09-22T04:40:47.023Z,2.20
2018-09-22T04:43:14.999Z,2.43
2018-09-22T04:45:42.914Z,2.83
2018-09-22T04:48:10.764Z,2.40
2018-09-22T04:50:39.639Z,2.00
2018-09-22T04:53:07.537Z,2.27
2018-09-22T04:55:36.455Z,2.27
2018-09-22T04:58:04.405Z,2.40
2018-09-22T05:00:33.245Z,2.20
2018-09-22T05:03:03.189Z,2.70
2018-09-22T05:05:32.065Z,2.30
2018-09-22T05:08:04.042Z,2.50
2018-09-22T05:10:31.897Z,2.30
2018-09-22T05:13:01.805Z,2.50
2018-09-22T05:15:35.155Z,2.17
2018-09-22T05:18:04.010Z,2.27
2018-09-22T05:20:31.923Z,2.23
2018-09-22T05:22:59.867Z,2.80
2018-09-22T05:25:31.789Z,2.30
2018-09-22T05:27:59.660Z,2.57
2018-09-22T05:30:27.588Z,2.40
2018-09-22T05:32:55.583Z,2.30
2018-09-22T05:35:23.530Z,2.73
2018-09-22T05:37:51.621Z,2.60
2018-09-22T05:40:19.510Z,2.93
2018-09-22T05:42:48.480Z,3.10
2018-09-22T05:45:16.402Z,2.40
2018-09-22T05:47:45.323Z,2.53
2018-09-22T05:50:17.815Z,2.47
2018-09-22T05:52:45.665Z,2.83
2018-09-22T05:55:13.564Z,2.57
2018-09-22T05:57:41.432Z,2.73
2018-09-22T06:00:13.430Z,2.93
2018-09-22T06:02:42.301Z,2.70
2018-09-22T06:05:11.179Z,3.13
2018-09-22T06:07:41.187Z,2.83
2018-09-22T06:10:09.105Z,2.73
2018-09-22T06:12:37.938Z,2.67
2018-09-22T06:15:07.874Z,2.60
2018-09-22T06:17:35.790Z,2.80
2018-09-22T06:20:07.477Z,2.80
2018-09-22T06:22:35.401Z,3.07
2018-09-22T06:25:06.774Z,3.00
2018-09-22T06:27:36.645Z,2.43
2018-09-22T06:30:05.412Z,2.90
2018-09-22T06:32:35.369Z,3.10
2018-09-22T06:35:04.262Z,2.80
2018-09-22T06:37:36.003Z,2.93
2018-09-22T06:40:03.995Z,3.17
2018-09-22T06:42:33.919Z,2.80
2018-09-22T06:45:04.988Z,2.70
2018-09-22T06:47:32.877Z,2.60
2018-09-22T06:50:01.797Z,2.63
2018-09-22T06:52:29.701Z,3.00
2018-09-22T06:54:58.723Z,2.87
2018-09-22T06:57:27.615Z,2.70
2018-09-22T07:00:00.131Z,2.50
2018-09-22T07:02:30.004Z,2.60
2018-09-22T07:04:57.892Z,3.17
2018-09-22T07:07:25.763Z,2.67
2018-09-22T07:09:53.681Z,2.63
2018-09-22T07:12:22.584Z,2.80
2018-09-22T07:14:50.501Z,2.90
2018-09-22T07:17:18.429Z,2.40
2018-09-22T07:19:47.316Z,2.60
2018-09-22T07:22:21.838Z,2.60
2018-09-22T07:24:53.854Z,3.00
2018-09-22T07:27:21.837Z,2.70
2018-09-22T07:29:49.794Z,2.63
2018-09-22T07:32:22.604Z,2.80
2018-09-22T07:34:50.577Z,3.10
2018-09-22T07:37:18.513Z,3.37
2018-09-22T07:39:47.338Z,2.60
2018-09-22T07:42:17.358Z,2.90
2018-09-22T07:44:47.318Z,2.50
2018-09-22T07:47:15.255Z,3.17
2018-09-22T07:49:44.198Z,2.90
2018-09-22T07:52:17.981Z,2.70
2018-09-22T07:54:49.612Z,3.00
2018-09-22T07:57:17.515Z,3.17
2018-09-22T07:59:45.370Z,3.17
2018-09-22T08:02:13.325Z,3.17
2018-09-22T08:04:44.422Z,2.37
2018-09-22T08:07:13.352Z,2.70
2018-09-22T08:09:43.253Z,3.03
2018-09-22T08:12:13.255Z,2.73
2018-09-22T08:14:42.165Z,3.13
2018-09-22T08:17:10.067Z,2.50
2018-09-22T08:19:37.972Z,2.57
2018-09-22T08:22:05.939Z,3.00
2018-09-22T08:24:33.923Z,2.60
2018-09-22T08:27:01.810Z,3.17
2018-09-22T08:29:29.719Z,2.77
2018-09-22T08:31:57.707Z,2.87
2018-09-22T08:34:26.637Z,2.73
2018-09-22T08:36:54.778Z,2.87
2018-09-22T08:39:22.515Z,3.00
2018-09-22T08:41:51.390Z,2.50
2018-09-22T08:44:21.286Z,3.00
2018-09-22T08:46:50.263Z,2.27
2018-09-22T08:49:19.199Z,2.53
2018-09-22T08:51:51.964Z,2.90
2018-09-22T08:54:21.506Z,3.20
2018-09-22T08:56:49.474Z,3.83
2018-09-22T08:59:18.806Z,3.10
2018-09-22T09:01:49.042Z,3.33
2018-09-22T09:04:17.974Z,3.90
2018-09-22T09:06:49.173Z,3.37
2018-09-22T09:09:21.471Z,3.20
2018-09-22T09:11:50.367Z,2.57
2018-09-22T09:14:22.324Z,2.50
2018-09-22T09:16:51.172Z,2.73
2018-09-22T09:19:20.126Z,2.47
2018-09-22T09:21:52.124Z,2.30
2018-09-22T09:24:20.065Z,2.60
2018-09-22T09:26:50.001Z,2.57
2018-09-22T09:29:18.933Z,2.13
2018-09-22T09:31:46.867Z,2.57
2018-09-22T09:34:14.786Z,2.53
2018-09-22T09:36:42.682Z,2.20
2018-09-22T09:39:10.568Z,2.50
2018-09-22T09:41:38.477Z,2.47
2018-09-22T09:44:07.381Z,2.30
2018-09-22T09:46:35.228Z,2.70
2018-09-22T09:49:04.320Z,2.30
2018-09-22T09:51:34.221Z,2.30
2018-09-22T09:54:02.127Z,2.30
2018-09-22T09:56:30.097Z,2.40
2018-09-22T09:58:58.008Z,3.40
2018-09-22T10:01:25.868Z,2.33
2018-09-22T10:03:53.851Z,2.70
2018-09-22T10:06:22.760Z,2.30
2018-09-22T10:08:50.679Z,2.50
2018-09-22T10:11:18.647Z,2.43
2018-09-22T10:13:46.532Z,1.93
2018-09-22T10:16:14.474Z,2.27
2018-09-22T10:18:43.325Z,2.30
2018-09-22T10:21:12.221Z,2.10
2018-09-22T10:23:43.236Z,2.10
2018-09-22T10:26:12.176Z,2.23
2018-09-22T10:28:44.725Z,2.40
2018-09-22T10:31:12.698Z,2.70
2018-09-22T10:33:43.929Z,2.57
2018-09-22T10:36:12.859Z,2.40
2018-09-22T10:38:41.749Z,2.63
2018-09-22T10:41:09.650Z,2.60
2018-09-22T10:43:38.626Z,2.60
2018-09-22T10:46:07.473Z,2.70
2018-09-22T10:48:36.351Z,2.60
2018-09-22T10:51:06.370Z,2.37
2018-09-22T10:53:35.225Z,2.50
2018-09-22T10:56:03.128Z,2.77
2018-09-22T10:58:32.050Z,3.30
2018-09-22T11:00:59.956Z,3.67
2018-09-22T11:03:27.925Z,2.47
2018-09-22T11:06:01.686Z,2.70
2018-09-22T11:08:29.590Z,2.60
2018-09-22T11:10:57.468Z,2.37
2018-09-22T11:13:26.462Z,2.23
2018-09-22T11:15:59.334Z,2.80
2018-09-22T11:18:29.198Z,3.20
2018-09-22T11:20:57.109Z,2.83
2018-09-22T11:23:28.313Z,3.30
2018-09-22T11:25:58.242Z,2.60
2018-09-22T11:28:27.092Z,2.70
2018-09-22T11:30:55.034Z,3.07
2018-09-22T11:33:22.937Z,3.10
2018-09-22T11:35:56.727Z,2.90
2018-09-22T11:38:26.698Z,3.07
2018-09-22T11:41:05.005Z,3.03
2018-09-22T11:43:33.898Z,3.20
2018-09-22T11:46:02.806Z,3.30
2018-09-22T11:48:30.721Z,3.00
2018-09-22T11:51:00.722Z,3.10
2018-09-22T11:53:29.654Z,3.60
2018-09-22T11:55:59.611Z,3.40
2018-09-22T11:58:27.525Z,3.27
2018-09-22T12:00:56.447Z,2.90
2018-09-22T12:03:29.960Z,2.90
2018-09-22T12:07:02.989Z,3.30
2018-09-22T12:09:32.916Z,2.87
2018-09-22T12:12:02.833Z,3.00
2018-09-22T12:14:32.717Z,3.07
2018-09-22T12:17:01.711Z,2.77
2018-09-22T12:19:31.563Z,3.30
2018-09-22T12:22:07.776Z,2.93
2018-09-22T12:24:37.649Z,3.00
2018-09-22T12:27:06.546Z,3.40
2018-09-22T12:29:35.442Z,2.73
2018-09-22T12:32:04.477Z,2.97
2018-09-22T12:34:34.350Z,2.90
2018-09-22T12:37:02.263Z,3.20
2018-09-22T12:39:31.202Z,3.13
2018-09-22T12:42:00.072Z,3.20
2018-09-22T12:44:35.006Z,3.40
2018-09-22T12:47:02.857Z,3.70
2018-09-22T12:49:32.805Z,2.80
2018-09-22T12:52:02.698Z,2.90
2018-09-22T12:54:31.557Z,2.87
2018-09-22T12:56:59.480Z,3.10
2018-09-22T12:59:27.362Z,3.10
2018-09-22T13:01:55.333Z,2.90
2018-09-22T13:04:29.970Z,2.87
2018-09-22T13:06:59.887Z,2.97
2018-09-22T13:09:27.806Z,2.63
2018-09-22T13:11:57.733Z,3.17
2018-09-22T13:14:25.626Z,3.00
2018-09-22T13:16:57.741Z,2.50
2018-09-22T13:19:26.685Z,3.13
2018-09-22T13:21:59.523Z,3.00
2018-09-22T13:24:27.434Z,2.63
2018-09-22T13:26:55.445Z,3.07
2018-09-22T13:29:27.426Z,2.67
2018-09-22T13:31:56.334Z,2.53
2018-09-22T13:34:32.255Z,2.47
2018-09-22T13:37:01.134Z,2.20
2018-09-22T13:39:30.017Z,2.60
2018-09-22T13:42:10.530Z,2.60
2018-09-22T13:44:42.107Z,2.40
2018-09-22T13:47:12.000Z,2.37
2018-09-22T13:49:41.923Z,2.60
2018-09-22T13:52:09.966Z,2.53
2018-09-22T13:54:42.567Z,2.23
2018-09-22T13:57:11.441Z,2.47
2018-09-22T13:59:39.316Z,2.50
2018-09-22T14:02:08.222Z,2.40
2018-09-22T14:04:37.179Z,2.90
2018-09-22T14:07:05.135Z,2.50
2018-09-22T14:09:34.077Z,2.80
2018-09-22T14:12:03.993Z,2.70
2018-09-22T14:14:31.857Z,2.70
2018-09-22T14:17:01.728Z,2.30
2018-09-22T14:19:31.702Z,2.60
2018-09-22T14:21:59.625Z,2.83
2018-09-22T14:24:27.505Z,2.80
2018-09-22T14:26:57.443Z,2.70
2018-09-22T14:29:25.333Z,2.70
2018-09-22T14:31:55.205Z,2.23
2018-09-22T14:34:24.049Z,2.63
2018-09-22T14:36:51.917Z,2.50
2018-09-22T14:39:21.037Z,2.47
2018-09-22T14:41:48.961Z,2.23
2018-09-22T14:44:16.902Z,2.23
2018-09-22T14:46:44.790Z,2.80
2018-09-22T14:49:12.765Z,2.67
2018-09-22T14:51:44.856Z,2.30
2018-09-22T14:54:12.815Z,2.60
2018-09-22T14:56:40.734Z,2.20
2018-09-22T14:59:09.643Z,2.63
2018-09-22T15:01:38.558Z,2.23
2018-09-22T15:04:06.532Z,2.67
2018-09-22T15:06:34.470Z,1.90
2018-09-22T15:09:02.369Z,2.23
2018-09-22T15:11:30.286Z,2.93
2018-09-22T15:13:59.165Z,2.10
2018-09-22T15:16:27.934Z,2.30
2018-09-22T15:19:00.771Z,2.07
2018-09-22T15:21:29.741Z,2.13
2018-09-22T15:23:57.626Z,2.30
2018-09-22T15:26:25.566Z,2.00
2018-09-22T15:28:53.440Z,2.00
2018-09-22T15:31:21.332Z,1.90
2018-09-22T15:33:49.363Z,1.90
2018-09-22T15:36:17.283Z,2.00
2018-09-22T15:38:45.169Z,2.23
2018-09-22T15:41:14.162Z,2.00
2018-09-22T15:43:43.101Z,1.70
2018-09-22T15:46:13.034Z,1.70
2018-09-22T15:48:41.033Z,1.90
2018-09-22T15:51:08.984Z,2.33
2018-09-22T15:53:40.609Z,1.90
2018-09-22T15:56:13.372Z,1.70
2018-09-22T15:58:42.330Z,2.00
2018-09-22T16:01:10.244Z,1.67
2018-09-22T16:03:38.077Z,1.80
2018-09-22T16:06:09.820Z,2.20
2018-09-22T16:08:37.849Z,1.80
2018-09-22T16:11:07.781Z,2.10
2018-09-22T16:13:37.657Z,2.17
2018-09-22T16:16:06.990Z,1.67
2018-09-22T16:18:34.891Z,1.90
2018-09-22T16:21:02.806Z,1.90
2018-09-22T16:23:30.697Z,1.87
2018-09-22T16:25:58.500Z,2.03
2018-09-22T16:28:28.379Z,1.90
2018-09-22T16:30:57.205Z,1.83
2018-09-22T16:33:27.189Z,1.80
2018-09-22T16:35:57.099Z,2.00
2018-09-22T16:38:24.927Z,1.80
2018-09-22T16:40:52.780Z,2.13
2018-09-22T16:43:22.739Z,1.93
2018-09-22T16:45:50.751Z,1.90
2018-09-22T16:48:19.848Z,1.70
2018-09-22T16:50:47.750Z,2.30
2018-09-22T16:53:15.690Z,1.93
2018-09-22T16:55:43.643Z,2.47
2018-09-22T16:58:11.583Z,1.77
2018-09-22T17:00:40.466Z,2.23
2018-09-22T17:03:08.386Z,2.10
2018-09-22T17:05:48.574Z,2.53
2018-09-22T17:08:16.539Z,2.40
2018-09-22T17:10:45.438Z,2.30
2018-09-22T17:13:14.319Z,1.93
2018-09-22T17:15:46.512Z,2.30
2018-09-22T17:18:15.380Z,2.00
2018-09-22T17:20:43.254Z,2.17
2018-09-22T17:23:11.183Z,1.70
2018-09-22T17:25:41.030Z,2.20
2018-09-22T17:28:09.930Z,2.47
2018-09-22T17:30:43.665Z,1.80
2018-09-22T17:33:12.508Z,2.10
2018-09-22T17:35:41.405Z,2.20
2018-09-22T17:38:09.314Z,1.87
2018-09-22T17:40:41.257Z,2.10
2018-09-22T17:43:10.237Z,2.40
2018-09-22T17:45:38.200Z,2.50
2018-09-22T17:48:07.048Z,2.30
2018-09-22T17:50:38.912Z,2.17
2018-09-22T17:53:07.808Z,2.40
2018-09-22T17:55:40.093Z,2.57
2018-09-22T17:58:07.988Z,2.70
2018-09-22T18:00:36.827Z,2.70
2018-09-22T18:03:06.705Z,3.03
2018-09-22T18:05:34.563Z,2.53
2018-09-22T18:08:08.970Z,2.40
2018-09-22T18:10:38.897Z,2.23
2018-09-22T18:13:07.800Z,2.20
2018-09-22T18:15:37.733Z,2.30
2018-09-22T18:18:05.655Z,2.70
2018-09-22T18:20:33.597Z,2.50
2018-09-22T18:23:01.515Z,2.33
2018-09-22T18:25:32.519Z,2.30
2018-09-22T18:28:00.441Z,2.07
2018-09-22T18:30:28.435Z,2.60
2018-09-22T18:33:00.549Z,2.30
2018-09-22T18:35:30.499Z,2.60
2018-09-22T18:37:58.519Z,2.53
2018-09-22T18:40:26.399Z,3.00
2018-09-22T18:42:55.238Z,2.50
2018-09-22T18:45:23.158Z,2.50
2018-09-22T18:47:53.082Z,2.87
2018-09-22T18:50:22.021Z,2.93
2018-09-22T18:52:50.049Z,3.00
2018-09-22T18:55:18.983Z,3.10
2018-09-22T18:57:46.868Z,3.23
2018-09-22T19:00:14.761Z,2.90
2018-09-22T19:02:42.641Z,3.10
2018-09-22T19:05:15.115Z,2.97
2018-09-22T19:07:43.009Z,2.90
2018-09-22T19:10:14.765Z,3.50
2018-09-22T19:12:47.064Z,3.03
2018-09-22T19:15:25.259Z,3.47
2018-09-22T19:19:00.906Z,3.90
2018-09-22T19:21:35.721Z,3.90
2018-09-22T19:24:14.887Z,4.20
2018-09-22T19:26:48.995Z,4.50
2018-09-22T19:29:21.875Z,3.80
2018-09-22T19:31:54.065Z,4.40
2018-09-22T19:34:29.499Z,3.23
2018-09-22T19:37:00.526Z,3.73
2018-09-22T19:39:37.306Z,3.67
2018-09-22T19:42:27.078Z,3.53
2018-09-22T19:46:02.042Z,3.50
2018-09-22T19:48:34.281Z,3.67
2018-09-22T19:51:05.618Z,3.20
2018-09-22T19:53:33.564Z,3.23
2018-09-22T19:56:01.570Z,2.93
2018-09-22T19:58:31.534Z,3.60
2018-09-22T20:01:00.417Z,3.10
2018-09-22T20:03:32.248Z,3.17
2018-09-22T20:06:05.910Z,3.20
2018-09-22T20:08:34.801Z,3.17
2018-09-22T20:11:02.678Z,3.17
2018-09-22T20:13:32.553Z,3.40
2018-09-22T20:16:04.472Z,3.50
2018-09-22T20:18:32.426Z,2.83
2018-09-22T20:21:00.408Z,3.03
2018-09-22T20:23:28.462Z,3.00
2018-09-22T20:25:56.406Z,3.33
2018-09-22T20:28:24.301Z,3.43
2018-09-22T20:30:52.263Z,3.83
2018-09-22T20:33:24.181Z,3.60
2018-09-22T20:35:56.752Z,3.27
2018-09-22T20:38:24.663Z,3.27
2018-09-22T20:40:52.521Z,3.07
2018-09-22T20:43:20.466Z,3.30
2018-09-22T20:45:48.406Z,4.00
2018-09-22T20:48:16.309Z,3.60
2018-09-22T20:50:45.603Z,3.50
2018-09-22T20:53:13.542Z,3.37
2018-09-22T20:55:42.452Z,3.50
2018-09-22T20:58:12.414Z,3.40
2018-09-22T21:00:42.293Z,4.00
2018-09-22T21:03:10.194Z,4.30
2018-09-22T21:05:40.155Z,4.50
2018-09-22T21:08:09.993Z,4.93
2018-09-22T21:10:37.929Z,4.07
2018-09-22T21:13:06.881Z,4.67
2018-09-22T21:15:34.770Z,3.83
2018-09-22T21:18:02.688Z,3.97
2018-09-22T21:20:34.728Z,4.67
2018-09-22T21:23:02.666Z,4.43
2018-09-22T21:25:31.662Z,4.30
2018-09-22T21:28:00.501Z,4.40
2018-09-22T21:30:29.398Z,5.63
2018-09-22T21:32:57.293Z,5.90
2018-09-22T21:35:29.034Z,5.10
2018-09-22T21:37:58.499Z,5.40
2018-09-22T21:40:26.448Z,5.27
2018-09-22T21:42:54.399Z,5.10
2018-09-22T21:45:22.422Z,4.30
2018-09-22T21:47:50.335Z,4.07
2018-09-22T21:50:19.200Z,4.40
2018-09-22T21:52:47.094Z,4.00
2018-09-22T21:55:18.109Z,4.57
2018-09-22T21:57:47.150Z,4.47
2018-09-22T22:00:15.085Z,4.10
2018-09-22T22:02:52.885Z,3.93
2018-09-22T22:05:20.806Z,4.60
2018-09-22T22:07:48.685Z,4.70
2018-09-22T22:10:18.675Z,4.57
2018-09-22T22:12:47.614Z,4.57
2018-09-22T22:15:15.521Z,4.57
2018-09-22T22:17:43.477Z,4.60
2018-09-22T22:20:15.416Z,5.50
2018-09-22T22:22:43.338Z,4.73
2018-09-22T22:25:11.270Z,5.27
2018-09-22T22:27:39.289Z,4.70
2018-09-22T22:30:08.041Z,5.70
2018-09-22T22:32:36.925Z,5.37
2018-09-22T22:35:06.905Z,4.67
2018-09-22T22:37:35.821Z,5.30
2018-09-22T22:40:04.705Z,5.20
2018-09-22T22:42:32.577Z,5.10
2018-09-22T22:45:00.474Z,4.97
2018-09-22T22:47:29.323Z,5.10
2018-09-22T22:49:57.189Z,4.93
2018-09-22T22:52:26.126Z,4.90
2018-09-22T22:54:55.997Z,4.87
2018-09-22T22:57:24.943Z,4.60
2018-09-22T22:59:53.141Z,4.50
2018-09-22T23:02:21.038Z,4.90
2018-09-22T23:04:49.914Z,4.97
2018-09-22T23:07:17.794Z,5.03
2018-09-22T23:09:46.661Z,5.13
2018-09-22T23:12:19.194Z,4.60
2018-09-22T23:14:47.129Z,4.73
2018-09-22T23:17:15.018Z,5.60
2018-09-22T23:19:46.864Z,5.20
2018-09-22T23:22:18.623Z,5.23
2018-09-22T23:24:46.492Z,5.47
2018-09-22T23:27:15.320Z,5.40
2018-09-22T23:29:48.650Z,5.63
2018-09-22T23:32:18.564Z,5.13
2018-09-22T23:34:46.486Z,5.40
2018-09-22T23:37:14.441Z,5.13
2018-09-22T23:39:43.259Z,5.00
2018-09-22T23:42:11.202Z,5.57
2018-09-22T23:44:39.171Z,6.03
2018-09-22T23:47:08.108Z,5.03
2018-09-22T23:49:38.020Z,5.07
2018-09-22T23:52:05.937Z,5.20
2018-09-22T23:54:34.761Z,5.77
2018-09-22T23:57:04.762Z,5.53
2018-09-22T23:59:32.756Z,5.97
